createdAt,value
2022-11-17T00:20:13.623Z,16.65
2022-11-17T01:12:23.926Z,14.27
2022-11-17T01:20:51.846Z,8.85
2022-11-17T01:28:44.745Z,11.85
2022-11-17T01:43:48.591Z,8.20
2022-11-17T01:58:36.634Z,7.65
2022-11-17T02:02:00.141Z,10.60
2022-11-17T02:10:31.927Z,8.95
2022-11-17T02:14:00.470Z,5.55
2022-11-17T02:18:11.475Z,7.88
2022-11-17T02:21:31.753Z,6.30
2022-11-17T02:25:26.989Z,6.30
2022-11-17T02:28:52.220Z,8.73
2022-11-17T02:32:10.937Z,12.50
2022-11-17T02:36:10.448Z,11.73
2022-11-17T02:39:51.431Z,6.80
2022-11-17T02:43:17.998Z,10.25
2022-11-17T02:46:20.414Z,10.20
2022-11-17T02:49:30.392Z,8.15
2022-11-17T02:52:19.227Z,7.03
2022-11-17T02:55:10.337Z,5.32
2022-11-17T02:57:58.369Z,7.60
2022-11-17T03:01:30.818Z,7.85
2022-11-17T03:04:33.658Z,8.52
2022-11-17T03:07:50.275Z,8.55
2022-11-17T03:11:02.649Z,11.38
2022-11-17T03:14:09.006Z,11.10
2022-11-17T03:17:15.420Z,9.02
2022-11-17T03:20:27.840Z,7.30
2022-11-17T03:23:25.329Z,14.68
2022-11-17T03:26:24.911Z,10.13
2022-11-17T03:29:17.000Z,11.63
2022-11-17T03:32:08.194Z,9.80
2022-11-17T03:35:01.504Z,10.73
2022-11-17T03:37:59.754Z,8.57
2022-11-17T03:40:49.225Z,7.30
2022-11-17T03:43:39.143Z,9.73
2022-11-17T03:46:29.811Z,6.85
2022-11-17T03:49:36.896Z,8.75
2022-11-17T03:52:26.270Z,8.55
2022-11-17T03:55:17.539Z,9.07
2022-11-17T03:58:18.578Z,9.02
2022-11-17T04:01:07.157Z,10.30
2022-11-17T04:03:55.579Z,6.95
2022-11-17T04:06:43.655Z,6.93
2022-11-17T04:09:34.137Z,10.75
2022-11-17T04:12:40.714Z,5.18
2022-11-17T04:15:47.704Z,9.30
2022-11-17T04:18:35.702Z,8.68
2022-11-17T04:21:23.532Z,6.53
2022-11-17T04:24:11.717Z,6.30
2022-11-17T04:27:18.382Z,10.57
2022-11-17T04:30:06.762Z,9.00
2022-11-17T04:32:54.729Z,7.22
2022-11-17T04:35:42.687Z,6.40
2022-11-17T04:38:33.186Z,5.38
2022-11-17T04:41:42.663Z,5.82
2022-11-17T04:44:32.560Z,5.72
2022-11-17T04:47:20.546Z,6.95
2022-11-17T04:50:09.089Z,10.48
2022-11-17T04:52:57.077Z,9.48
2022-11-17T04:55:45.214Z,12.43
2022-11-17T04:58:36.964Z,9.90
2022-11-17T05:01:28.132Z,10.30
2022-11-17T05:04:39.510Z,17.02
2022-11-17T05:07:28.079Z,15.02
2022-11-17T05:10:16.327Z,12.80
2022-11-17T05:13:22.681Z,10.88
2022-11-17T05:16:28.831Z,14.13
2022-11-17T05:19:24.319Z,16.73
2022-11-17T05:22:37.632Z,11.52
2022-11-17T05:25:25.613Z,16.98
2022-11-17T05:28:13.529Z,15.48
2022-11-17T05:31:01.375Z,15.13
2022-11-17T05:33:49.306Z,22.15
2022-11-17T05:36:37.374Z,12.35
2022-11-17T05:39:25.305Z,16.40
2022-11-17T05:42:13.401Z,14.50
2022-11-17T05:45:01.274Z,14.30
2022-11-17T05:47:49.059Z,14.40
2022-11-17T05:50:37.079Z,12.52
2022-11-17T05:53:25.602Z,14.18
2022-11-17T05:56:31.858Z,14.18
2022-11-17T05:59:36.998Z,22.10
2022-11-17T06:02:32.600Z,17.05
2022-11-17T06:05:20.851Z,13.93
2022-11-17T06:08:08.709Z,5.80
2022-11-17T06:10:56.801Z,6.97
2022-11-17T06:13:44.638Z,5.25
2022-11-17T06:16:39.841Z,7.40
2022-11-17T06:19:43.881Z,6.95
2022-11-17T06:22:32.709Z,7.90
2022-11-17T06:25:21.255Z,8.27
2022-11-17T06:28:14.037Z,10.70
2022-11-17T06:31:02.678Z,8.55
2022-11-17T06:33:50.441Z,15.68
2022-11-17T06:36:38.281Z,14.07
2022-11-17T06:39:26.162Z,11.10
2022-11-17T06:42:14.089Z,11.82
2022-11-17T06:45:02.062Z,16.98
2022-11-17T06:47:52.647Z,12.30
2022-11-17T06:50:40.660Z,13.95
2022-11-17T06:53:28.661Z,14.75
2022-11-17T06:56:18.200Z,17.02
2022-11-17T06:59:06.044Z,16.42
2022-11-17T07:01:53.866Z,19.58
2022-11-17T07:04:41.773Z,13.98
2022-11-17T07:07:29.755Z,15.45
2022-11-17T07:10:17.935Z,14.07
2022-11-17T07:13:06.054Z,11.68
2022-11-17T07:15:53.874Z,18.40
2022-11-17T07:18:42.739Z,10.88
2022-11-17T07:21:30.677Z,14.48
2022-11-17T07:24:18.661Z,8.32
2022-11-17T07:27:06.635Z,8.23
2022-11-17T07:29:54.472Z,8.30
2022-11-17T07:32:42.502Z,10.07
2022-11-17T07:35:30.371Z,7.90
2022-11-17T07:38:21.188Z,9.43
2022-11-17T07:41:13.039Z,8.82
2022-11-17T07:44:00.993Z,11.82
2022-11-17T07:46:48.862Z,9.15
2022-11-17T07:49:36.778Z,9.32
2022-11-17T07:52:24.669Z,9.73
2022-11-17T07:55:12.501Z,9.25
2022-11-17T07:58:02.203Z,8.80
2022-11-17T08:00:52.515Z,7.72
2022-11-17T08:03:40.547Z,4.82
2022-11-17T08:06:28.570Z,3.40
2022-11-17T08:09:16.635Z,5.13
2022-11-17T08:12:04.764Z,2.33
2022-11-17T08:14:52.858Z,3.97
2022-11-17T08:17:40.846Z,5.45
2022-11-17T08:20:29.963Z,5.95
2022-11-17T08:23:18.598Z,5.53
2022-11-17T08:26:11.689Z,5.13
2022-11-17T08:29:01.906Z,6.22
2022-11-17T08:31:49.775Z,5.40
2022-11-17T08:34:38.972Z,3.35
2022-11-17T08:37:27.022Z,5.00
2022-11-17T08:40:20.603Z,6.95
2022-11-17T08:43:08.930Z,7.75
2022-11-17T08:46:08.746Z,5.60
2022-11-17T08:49:00.553Z,6.13
2022-11-17T08:51:52.801Z,6.68
2022-11-17T08:54:40.622Z,7.50
2022-11-17T08:57:30.543Z,6.28
2022-11-17T09:00:21.329Z,5.80
2022-11-17T09:03:11.090Z,6.07
2022-11-17T09:09:32.219Z,8.68
2022-11-17T09:12:20.211Z,6.90
2022-11-17T09:15:09.358Z,5.95
2022-11-17T09:18:00.311Z,8.60
2022-11-17T09:20:48.235Z,9.82
2022-11-17T09:23:36.938Z,8.85
2022-11-17T09:26:25.641Z,4.97
2022-11-17T09:29:14.683Z,7.43
2022-11-17T09:32:02.977Z,5.32
2022-11-17T09:34:51.558Z,7.38
2022-11-17T09:37:39.541Z,11.50
2022-11-17T09:40:31.856Z,10.60
2022-11-17T09:43:34.302Z,11.35
2022-11-17T09:46:35.625Z,9.00
2022-11-17T09:49:37.396Z,8.18
2022-11-17T09:53:05.532Z,8.23
2022-11-17T09:56:02.119Z,13.82
2022-11-17T09:59:04.409Z,15.32
2022-11-17T10:01:52.741Z,15.73
2022-11-17T10:04:40.595Z,10.25
2022-11-17T10:07:31.446Z,9.13
2022-11-17T10:10:30.314Z,9.80
2022-11-17T10:13:27.550Z,10.82
2022-11-17T10:16:15.651Z,6.95
2022-11-17T10:19:26.033Z,9.48
2022-11-17T10:22:37.148Z,10.32
2022-11-17T10:25:40.733Z,8.98
2022-11-17T10:28:33.546Z,7.60
2022-11-17T10:31:21.415Z,10.95
2022-11-17T10:34:38.915Z,10.00
2022-11-17T10:37:33.595Z,13.30
2022-11-17T10:40:27.688Z,10.45
2022-11-17T10:46:15.811Z,9.48
2022-11-17T10:49:33.746Z,13.02
2022-11-17T10:52:29.238Z,5.03
2022-11-17T10:58:18.812Z,7.93
2022-11-17T11:01:27.186Z,5.95
2022-11-17T11:04:58.140Z,7.88
2022-11-17T11:08:14.273Z,12.18
2022-11-17T11:12:05.710Z,6.93
2022-11-17T11:14:58.416Z,11.50
2022-11-17T11:18:01.994Z,8.70
2022-11-17T11:21:40.119Z,12.27
2022-11-17T11:29:26.408Z,10.40
2022-11-17T11:40:06.312Z,6.85
2022-11-17T11:43:09.652Z,8.77
2022-11-17T11:46:44.054Z,11.40
2022-11-17T11:50:35.374Z,14.10
2022-11-17T11:55:31.434Z,6.93
2022-11-17T11:58:53.549Z,9.55
2022-11-17T12:03:10.510Z,10.15
2022-11-17T13:09:31.474Z,4.53
2022-11-17T13:17:38.747Z,3.03
2022-11-17T14:22:31.950Z,7.80
2022-11-17T14:40:16.336Z,3.35
2022-11-17T14:43:39.075Z,13.15
2022-11-17T14:46:36.561Z,3.80
2022-11-17T14:50:06.188Z,6.15
2022-11-17T14:54:20.337Z,7.80
2022-11-17T14:57:47.695Z,6.30
2022-11-17T15:00:42.050Z,10.85
2022-11-17T15:03:54.218Z,10.07
2022-11-17T15:06:53.579Z,10.30
2022-11-17T15:10:03.274Z,10.65
2022-11-17T15:12:54.691Z,6.68
2022-11-17T15:15:50.887Z,3.03
2022-11-17T15:18:42.438Z,3.90
2022-11-17T15:21:42.589Z,2.30
2022-11-17T15:24:30.551Z,5.47
2022-11-17T15:27:20.827Z,3.22
2022-11-17T15:30:09.267Z,4.38
2022-11-17T15:33:01.183Z,21.60
2022-11-17T15:35:49.218Z,10.40
2022-11-17T15:38:38.743Z,5.13
2022-11-17T15:41:32.442Z,5.57
2022-11-17T15:47:14.839Z,11.25
2022-11-17T15:50:02.979Z,9.85
2022-11-17T15:53:04.173Z,10.40
2022-11-17T15:55:52.848Z,9.60
2022-11-17T15:58:42.503Z,16.13
2022-11-17T16:01:32.831Z,12.48
2022-11-17T16:04:21.712Z,9.82
2022-11-17T16:07:10.252Z,8.50
2022-11-17T16:09:58.288Z,9.35
2022-11-17T16:12:46.332Z,12.10
2022-11-17T16:15:42.727Z,10.40
2022-11-17T16:18:53.285Z,13.25
2022-11-17T16:21:41.502Z,11.10
2022-11-17T16:25:09.637Z,14.15
2022-11-17T16:27:57.664Z,14.90
2022-11-17T16:30:46.141Z,14.80
2022-11-17T16:33:40.521Z,17.33
2022-11-17T16:40:56.633Z,8.27
2022-11-17T16:43:55.374Z,11.52
2022-11-17T16:47:02.402Z,11.63
2022-11-17T16:51:04.682Z,12.38
2022-11-17T16:54:18.569Z,8.85
2022-11-17T16:57:55.711Z,9.07
2022-11-17T17:00:49.554Z,12.05
2022-11-17T17:03:45.227Z,8.02
2022-11-17T17:06:39.921Z,12.23
2022-11-17T17:09:28.845Z,9.30
2022-11-17T17:12:17.214Z,11.73
2022-11-17T17:15:06.521Z,10.95
2022-11-17T17:17:56.362Z,13.60
2022-11-17T17:20:56.567Z,7.70
2022-11-17T17:26:41.539Z,9.98
2022-11-17T17:29:38.567Z,7.72
2022-11-17T17:32:33.862Z,6.53
2022-11-17T17:35:26.446Z,5.03
2022-11-17T17:38:22.885Z,8.77
2022-11-17T17:41:12.993Z,10.60
2022-11-17T17:44:10.339Z,9.48
2022-11-17T17:47:04.075Z,7.80
2022-11-17T17:49:52.264Z,10.35
2022-11-17T17:52:40.528Z,11.57
2022-11-17T17:55:28.504Z,9.85
2022-11-17T18:01:37.441Z,6.40
2022-11-17T18:04:25.457Z,9.27
2022-11-17T18:07:13.573Z,7.85
2022-11-17T18:10:01.640Z,9.00
2022-11-17T18:12:49.693Z,15.13
2022-11-17T18:15:40.617Z,15.90
2022-11-17T18:18:29.226Z,9.13
2022-11-17T18:21:21.810Z,15.70
2022-11-17T18:24:14.840Z,11.65
2022-11-17T18:27:02.857Z,16.83
2022-11-17T18:29:50.932Z,9.10
2022-11-17T18:32:45.492Z,13.93
2022-11-17T18:35:38.651Z,13.60
2022-11-17T18:38:26.849Z,11.27
2022-11-17T18:41:17.715Z,15.52
2022-11-17T18:44:05.973Z,11.65
2022-11-17T18:46:58.224Z,13.77
2022-11-17T18:49:49.432Z,9.45
2022-11-17T18:52:37.625Z,10.55
2022-11-17T18:55:25.803Z,10.00
2022-11-17T18:58:13.672Z,6.63
2022-11-17T19:01:17.858Z,9.38
2022-11-17T19:04:06.509Z,11.52
2022-11-17T19:06:54.486Z,15.38
2022-11-17T19:09:44.117Z,11.35
2022-11-17T19:12:32.405Z,11.52
2022-11-17T19:15:21.092Z,11.27
2022-11-17T19:18:11.957Z,9.43
2022-11-17T19:21:12.708Z,13.10
2022-11-17T19:24:03.543Z,16.50
2022-11-17T19:26:51.838Z,9.70
2022-11-17T19:29:41.512Z,14.52
2022-11-17T19:32:29.661Z,67.93
2022-11-17T19:35:22.506Z,14.70
2022-11-17T19:38:10.876Z,14.20
2022-11-17T19:41:03.522Z,15.40
2022-11-17T19:43:56.522Z,12.35
2022-11-17T19:46:44.401Z,16.17
2022-11-17T19:49:32.356Z,17.75
2022-11-17T19:52:21.975Z,26.58
2022-11-17T19:55:09.951Z,23.77
2022-11-17T19:57:57.892Z,17.10
2022-11-17T20:00:48.545Z,24.50
2022-11-17T20:03:43.864Z,17.25
2022-11-17T20:06:40.308Z,17.60
2022-11-17T20:09:29.873Z,22.42
2022-11-17T20:12:20.840Z,21.05
2022-11-17T20:15:33.193Z,25.30
2022-11-17T20:18:22.893Z,21.13
2022-11-17T20:21:14.042Z,23.52
2022-11-17T20:24:04.658Z,23.05
2022-11-17T20:26:52.581Z,21.67
2022-11-17T20:29:40.703Z,20.05
2022-11-17T20:32:32.745Z,20.35
2022-11-17T20:35:20.567Z,20.20
2022-11-17T20:38:13.097Z,21.63
2022-11-17T20:41:05.041Z,25.52
2022-11-17T20:43:55.655Z,20.88
2022-11-17T20:46:43.481Z,21.65
2022-11-17T20:49:31.484Z,25.45
2022-11-17T20:52:21.153Z,25.73
2022-11-17T20:55:09.231Z,27.40
2022-11-17T20:57:57.298Z,22.20
2022-11-17T21:00:45.389Z,25.17
2022-11-17T21:03:34.325Z,27.63
2022-11-17T21:06:25.952Z,23.92
2022-11-17T21:09:36.382Z,23.88
2022-11-17T21:12:26.636Z,25.50
2022-11-17T21:15:14.938Z,23.83
2022-11-17T21:18:22.505Z,23.73
2022-11-17T21:21:15.597Z,22.75
2022-11-17T21:24:04.145Z,23.20
2022-11-17T21:26:54.643Z,24.73
2022-11-17T21:29:42.596Z,15.98
2022-11-17T21:32:37.096Z,17.05
2022-11-17T21:35:25.423Z,17.88
2022-11-17T21:38:14.118Z,15.95
2022-11-17T21:41:17.656Z,14.90
2022-11-17T21:44:07.278Z,20.33
2022-11-17T21:46:57.768Z,15.18
2022-11-17T21:49:49.321Z,13.20
2022-11-17T21:52:39.656Z,19.58
2022-11-17T21:55:31.029Z,17.88
2022-11-17T21:58:19.154Z,14.57
2022-11-17T22:01:14.123Z,17.48
2022-11-17T22:04:02.883Z,18.75
2022-11-17T22:06:53.376Z,19.17
2022-11-17T22:09:41.762Z,25.15
2022-11-17T22:12:30.162Z,17.92
2022-11-17T22:15:18.709Z,18.40
2022-11-17T22:18:06.999Z,19.15
2022-11-17T22:20:58.316Z,19.65
2022-11-17T22:23:46.344Z,17.70
2022-11-17T22:26:38.751Z,28.50
2022-11-17T22:29:26.673Z,21.50
2022-11-17T22:32:24.185Z,26.77
2022-11-17T22:35:12.212Z,21.30
2022-11-17T22:38:00.405Z,26.25
2022-11-17T22:40:48.556Z,31.42
2022-11-17T22:43:37.076Z,34.65
2022-11-17T22:46:29.053Z,31.95
2022-11-17T22:49:20.318Z,33.45
2022-11-17T22:52:10.031Z,37.08
2022-11-17T22:54:57.899Z,35.88
2022-11-17T22:57:46.084Z,33.72
2022-11-17T23:00:34.153Z,32.10
2022-11-17T23:03:22.389Z,40.63
2022-11-17T23:06:10.448Z,32.35
2022-11-17T23:08:59.160Z,31.27
2022-11-17T23:11:47.442Z,33.08
2022-11-17T23:14:35.529Z,34.42
2022-11-17T23:17:23.796Z,27.38
2022-11-17T23:20:12.662Z,34.50
2022-11-17T23:23:00.737Z,39.95
2022-11-17T23:25:48.968Z,32.15
2022-11-17T23:28:39.440Z,30.83
2022-11-17T23:31:30.345Z,23.23
2022-11-17T23:34:18.408Z,29.38
2022-11-17T23:37:06.750Z,35.60
2022-11-17T23:39:54.748Z,37.97
2022-11-17T23:42:43.352Z,31.42
2022-11-17T23:45:31.593Z,27.88
2022-11-17T23:48:19.566Z,37.97
2022-11-17T23:51:11.428Z,43.50
2022-11-17T23:54:01.304Z,35.30
2022-11-17T23:56:53.027Z,36.75
2022-11-17T23:59:41.217Z,29.30
